Crystal Falls, MI (49920)

1:03 PM CDT on July 27, 2016 (GMT -0500)
Bates Tower | | Change Station

Elev 1765 ft 46.10 °N, 88.54 °W | Updated 5 minutes ago

Light Rain
Light Rain
70.3 °F
Feels Like 70.3 °F
N
8.0
Wind Variable Wind from ENE
Gusts 8.0 mph

Today
High -- | Low -- °F
--% Chance of Precip.
Yesterday
High -- | Low -- °F
Precip. -- in
Pressure 30.01 in
Visibility 10.0 miles
Clouds Few 1800 ft
Overcast 10000 ft
Dew Point 66 °F
Humidity 86%
Rainfall 0.09 in
Snow Depth Not available.
5:30 AM 8:28 PM
Last Quarter, 41% visible
METAR KIMT 271754Z AUTO 36007KT 10SM -RA FEW018 OVC100 23/18 A3001 RMK AO2 RAB06E20B39 SLP160 P0000 60002 T02280183 10228 20183 50003
Pressure 30.01 in
Visibility 10.0 miles
Clouds Few 1800 ft
Overcast 10000 ft
Dew Point 66 °F
Humidity 86%
Rainfall 0.09 in
Snow Depth Not available.
5:30 AM 8:28 PM
Last Quarter, 41% visible
METAR KIMT 271754Z AUTO 36007KT 10SM -RA FEW018 OVC100 23/18 A3001 RMK AO2 RAB06E20B39 SLP160 P0000 60002 T02280183 10228 20183 50003

10-Day Weather Forecast

Almanac

Astronomy

Jul. 27, 2016 Rise Set
Actual Time
Civil Twilight
Nautical Twilight
Astronomical Twilight
Moon
Length of Visible Light
Length of Day
Tomorrow will be .
, % of the Moon is Illuminated

Today's Extremes

State Highs State Lows

Community

WunderPhotos

Upload Photos

1,927,892 photos uploaded!

WunderBlog® & News

Nearby

Air Quality

  Air Quality AQ Index Pollutant
Not available.

Snow Depth

Station Depth Elevation

Earthquake Activity

City Distance Mag. Time & Date
Minimum magnitude displayed is 2.5.

Coastal Water Temperatures

Place Temperature

Stations

Nearby Weather Stations

Station Location Temp. Windchill Dew Point Humidity Wind Precip. Elev Updated Type
                   

Watches & Warnings

There are currently no watches in effect.